createdAt,value
2019-06-15T00:01:01.386Z,20.30
2019-06-15T00:03:30.257Z,20.30
2019-06-15T00:05:59.135Z,20.30
2019-06-15T00:08:28.007Z,20.30
2019-06-15T00:11:00.624Z,20.30
2019-06-15T00:13:29.416Z,20.20
2019-06-15T00:15:59.458Z,20.20
2019-06-15T00:18:28.345Z,20.20
2019-06-15T00:20:59.194Z,20.30
2019-06-15T00:23:28.035Z,20.20
2019-06-15T00:25:56.984Z,20.30
2019-06-15T00:28:25.819Z,20.30
2019-06-15T00:30:59.649Z,20.30
2019-06-15T00:33:28.908Z,20.20
2019-06-15T00:35:57.872Z,20.20
2019-06-15T00:38:26.788Z,20.20
2019-06-15T00:40:55.637Z,20.20
2019-06-15T00:43:24.489Z,20.20
2019-06-15T00:45:55.416Z,20.20
2019-06-15T00:48:24.261Z,20.10
2019-06-15T00:50:53.233Z,20.10
2019-06-15T00:53:22.062Z,20.00
2019-06-15T00:55:53.071Z,20.00
2019-06-15T00:58:22.950Z,20.00
2019-06-15T01:03:20.189Z,20.00
2019-06-15T01:05:49.062Z,20.00
2019-06-15T01:08:21.117Z,19.90
2019-06-15T01:10:50.125Z,19.90
2019-06-15T01:13:24.946Z,19.80
2019-06-15T01:15:53.817Z,19.90
2019-06-15T01:18:39.852Z,19.70
2019-06-15T01:21:08.836Z,19.80
2019-06-15T01:23:42.889Z,19.70
2019-06-15T01:26:11.717Z,19.60
2019-06-15T01:28:59.876Z,19.60
2019-06-15T01:31:28.752Z,19.30
2019-06-15T01:33:59.663Z,19.20
2019-06-15T01:36:28.556Z,19.10
2019-06-15T01:38:57.480Z,19.10
2019-06-15T01:41:26.371Z,19.10
2019-06-15T01:43:59.507Z,19.00
2019-06-15T01:46:28.392Z,18.90
2019-06-15T01:48:57.308Z,18.90
2019-06-15T01:51:26.143Z,18.80
2019-06-15T01:53:55.063Z,18.80
2019-06-15T01:56:23.971Z,18.70
2019-06-15T01:58:52.802Z,18.70
2019-06-15T02:01:21.662Z,18.70
2019-06-15T02:03:50.480Z,18.70
2019-06-15T02:06:19.285Z,18.80
2019-06-15T02:08:49.151Z,18.70
2019-06-15T02:11:18.022Z,18.80
2019-06-15T02:13:46.857Z,18.70
2019-06-15T02:16:15.772Z,18.80
2019-06-15T02:18:44.728Z,18.70
2019-06-15T02:21:13.548Z,18.70
2019-06-15T02:23:42.506Z,18.70
2019-06-15T02:26:11.309Z,18.70
2019-06-15T02:28:49.291Z,18.70
2019-06-15T02:31:18.170Z,18.60
2019-06-15T02:33:47.012Z,18.60
2019-06-15T02:36:18.152Z,18.60
2019-06-15T02:38:46.200Z,18.50
2019-06-15T02:41:16.701Z,18.50
2019-06-15T02:43:45.715Z,18.50
2019-06-15T02:46:13.826Z,18.50
2019-06-15T02:48:41.945Z,18.50
2019-06-15T02:51:09.936Z,18.60
2019-06-15T02:53:38.090Z,18.60
2019-06-15T02:56:18.168Z,18.60
2019-06-15T02:58:46.238Z,18.60
2019-06-15T03:01:20.410Z,18.60
2019-06-15T03:03:48.436Z,18.60
2019-06-15T03:06:25.794Z,18.60
2019-06-15T03:08:53.971Z,18.60
2019-06-15T03:11:27.336Z,18.50
2019-06-15T03:13:55.623Z,18.60
2019-06-15T03:16:29.672Z,18.50
2019-06-15T03:18:57.652Z,18.40
2019-06-15T03:21:25.666Z,18.40
2019-06-15T03:23:53.743Z,18.40
2019-06-15T03:26:23.684Z,18.40
2019-06-15T03:28:51.760Z,18.40
2019-06-15T03:31:19.729Z,18.40
2019-06-15T03:33:47.943Z,18.40
2019-06-15T03:36:15.911Z,18.40
2019-06-15T03:38:55.929Z,18.40
2019-06-15T03:41:23.993Z,18.30
2019-06-15T03:43:56.270Z,18.30
2019-06-15T03:46:24.248Z,18.20
2019-06-15T03:49:06.648Z,18.20
2019-06-15T03:51:34.644Z,18.30
2019-06-15T03:54:02.831Z,18.20
2019-06-15T03:56:30.844Z,18.20
2019-06-15T03:59:01.901Z,18.20
2019-06-15T04:01:34.134Z,18.20
2019-06-15T04:04:08.149Z,18.20
2019-06-15T04:06:36.102Z,18.20
2019-06-15T04:09:29.884Z,18.10
2019-06-15T04:14:49.494Z,18.10
2019-06-15T04:17:18.301Z,18.00
2019-06-15T04:19:46.312Z,18.00
2019-06-15T04:22:28.645Z,18.00
2019-06-15T04:24:56.652Z,18.00
2019-06-15T04:27:24.699Z,18.10
2019-06-15T04:29:52.755Z,18.00
2019-06-15T04:32:21.407Z,18.00
2019-06-15T04:34:52.717Z,18.00
2019-06-15T04:37:20.797Z,18.00
2019-06-15T04:39:48.877Z,18.00
2019-06-15T04:42:16.839Z,18.00
2019-06-15T04:44:44.921Z,18.00
2019-06-15T04:47:12.894Z,17.90
2019-06-15T04:49:40.962Z,18.00
2019-06-15T04:52:08.944Z,18.00
2019-06-15T04:54:49.169Z,18.10
2019-06-15T04:57:17.183Z,18.10
2019-06-15T04:59:54.563Z,18.10
2019-06-15T05:02:22.497Z,18.30
2019-06-15T05:04:50.579Z,18.20
2019-06-15T05:10:29.159Z,18.40
2019-06-15T05:12:57.204Z,18.40
2019-06-15T05:15:28.302Z,18.40
2019-06-15T05:17:56.389Z,18.40
2019-06-15T05:20:41.502Z,18.40
2019-06-15T05:23:09.465Z,18.50
2019-06-15T05:25:51.766Z,18.50
2019-06-15T05:28:19.744Z,18.70
2019-06-15T05:30:52.964Z,18.70
2019-06-15T05:33:20.982Z,18.70
2019-06-15T05:35:52.037Z,18.70
2019-06-15T05:38:19.995Z,18.70
2019-06-15T05:40:47.972Z,18.80
2019-06-15T05:43:21.163Z,18.80
2019-06-15T05:45:49.222Z,18.80
2019-06-15T05:48:19.333Z,18.90
2019-06-15T05:50:47.306Z,19.00
2019-06-15T05:53:18.403Z,19.00
2019-06-15T05:55:46.479Z,19.10
2019-06-15T05:58:16.493Z,19.20
2019-06-15T06:00:44.460Z,19.20
2019-06-15T06:03:12.486Z,19.50
2019-06-15T06:05:40.404Z,19.50
2019-06-15T06:08:11.807Z,19.50
2019-06-15T06:10:39.803Z,19.40
2019-06-15T06:13:07.731Z,19.40
2019-06-15T06:15:35.742Z,19.60
2019-06-15T06:18:15.809Z,19.70
2019-06-15T06:20:43.760Z,19.70
2019-06-15T06:23:22.856Z,19.90
2019-06-15T06:25:50.773Z,20.10
2019-06-15T06:28:30.724Z,20.40
2019-06-15T06:30:58.640Z,20.40
2019-06-15T06:33:26.582Z,20.70
2019-06-15T06:35:55.455Z,20.80
2019-06-15T06:38:24.251Z,21.00
2019-06-15T06:40:55.086Z,21.10
2019-06-15T06:43:23.919Z,21.20
2019-06-15T06:45:52.719Z,21.10
2019-06-15T06:48:21.534Z,21.00
2019-06-15T06:50:57.984Z,21.00
2019-06-15T06:53:26.801Z,21.00
2019-06-15T06:55:56.697Z,21.00
2019-06-15T06:58:25.435Z,21.10
2019-06-15T07:00:54.254Z,21.10
2019-06-15T07:03:23.025Z,21.10
2019-06-15T07:06:03.940Z,21.20
2019-06-15T07:08:32.823Z,21.20
2019-06-15T07:11:02.755Z,21.30
2019-06-15T07:13:31.544Z,21.30
2019-06-15T07:16:06.477Z,21.50
2019-06-15T07:18:35.347Z,21.80
2019-06-15T07:21:04.477Z,21.90
2019-06-15T07:23:33.296Z,22.20
2019-06-15T07:26:03.161Z,22.40
2019-06-15T07:28:31.982Z,22.40
2019-06-15T07:31:09.095Z,22.40
2019-06-15T07:33:37.933Z,22.40
2019-06-15T07:36:08.803Z,22.30
2019-06-15T07:38:37.632Z,22.20
2019-06-15T07:41:23.623Z,22.30
2019-06-15T07:43:52.430Z,22.20
2019-06-15T07:46:21.283Z,22.30
2019-06-15T07:48:50.114Z,21.80
2019-06-15T07:51:19.021Z,21.80
2019-06-15T07:53:47.796Z,21.80
2019-06-15T07:56:21.717Z,21.80
2019-06-15T07:58:50.495Z,21.80
2019-06-15T08:01:22.689Z,21.90
2019-06-15T08:03:51.405Z,21.90
2019-06-15T08:06:20.327Z,21.90
2019-06-15T08:08:49.111Z,22.00
2019-06-15T08:11:21.311Z,21.90
2019-06-15T08:13:50.203Z,22.20
2019-06-15T08:16:18.981Z,22.20
2019-06-15T08:18:49.759Z,22.30
2019-06-15T08:21:18.599Z,22.30
2019-06-15T08:23:47.592Z,22.50
2019-06-15T08:26:16.375Z,22.70
2019-06-15T08:28:45.251Z,22.70
2019-06-15T08:31:14.213Z,22.90
2019-06-15T08:33:46.209Z,22.90
2019-06-15T08:36:15.104Z,23.10
2019-06-15T08:38:44.971Z,23.20
2019-06-15T08:43:42.196Z,23.10
2019-06-15T08:46:11.137Z,23.00
2019-06-15T08:48:46.016Z,22.80
2019-06-15T08:51:14.882Z,22.80
2019-06-15T08:53:45.864Z,22.80
2019-06-15T08:56:14.651Z,22.80
2019-06-15T08:58:55.135Z,22.90
2019-06-15T09:01:13.966Z,22.70
2019-06-15T09:03:51.920Z,22.60
2019-06-15T09:06:22.232Z,22.50
2019-06-15T09:08:51.043Z,22.40
2019-06-15T09:11:19.999Z,22.30
2019-06-15T09:13:58.026Z,22.20
2019-06-15T09:16:33.186Z,22.00
2019-06-15T09:19:02.048Z,22.10
2019-06-15T09:21:38.894Z,22.20
2019-06-15T09:24:07.794Z,22.10
2019-06-15T09:26:41.648Z,22.00
2019-06-15T09:29:11.744Z,21.90
2019-06-15T09:31:40.827Z,21.60
2019-06-15T09:34:18.432Z,21.60
2019-06-15T09:36:40.073Z,21.60
2019-06-15T09:39:10.899Z,21.50
2019-06-15T09:41:39.724Z,21.40
2019-06-15T09:44:29.470Z,21.40
2019-06-15T09:46:58.287Z,21.40
2019-06-15T09:49:28.182Z,21.40
2019-06-15T09:51:58.490Z,21.60
2019-06-15T09:54:28.068Z,21.60
2019-06-15T09:56:57.112Z,21.40
2019-06-15T09:59:31.429Z,21.10
2019-06-15T10:02:00.241Z,21.00
2019-06-15T10:04:38.311Z,20.80
2019-06-15T10:07:07.088Z,20.70
2019-06-15T10:09:39.249Z,20.60
2019-06-15T10:12:08.059Z,20.30
2019-06-15T10:14:36.828Z,20.30
2019-06-15T10:17:07.773Z,20.30
2019-06-15T10:19:36.603Z,20.30
2019-06-15T10:22:07.378Z,20.60
2019-06-15T10:24:36.215Z,20.80
2019-06-15T10:27:09.569Z,20.90
2019-06-15T10:29:42.018Z,21.10
2019-06-15T10:32:09.997Z,21.20
2019-06-15T10:34:38.733Z,21.20
2019-06-15T10:37:17.030Z,20.70
2019-06-15T10:39:45.814Z,20.60
2019-06-15T10:44:50.737Z,20.30
2019-06-15T10:47:20.590Z,20.30
2019-06-15T10:50:08.770Z,20.30
2019-06-15T10:52:37.664Z,20.30
2019-06-15T10:55:08.400Z,20.30
2019-06-15T10:57:37.328Z,20.30
2019-06-15T11:00:07.792Z,20.40
2019-06-15T11:02:40.057Z,20.30
2019-06-15T11:05:09.522Z,20.30
2019-06-15T11:07:39.473Z,20.40
2019-06-15T11:10:10.861Z,20.50
2019-06-15T11:12:46.424Z,20.60
2019-06-15T11:15:10.383Z,20.70
2019-06-15T11:17:39.243Z,20.70
2019-06-15T11:20:08.092Z,20.70
2019-06-15T11:22:36.973Z,20.70
2019-06-15T11:25:06.672Z,20.60
2019-06-15T11:27:35.605Z,20.60
2019-06-15T11:30:13.637Z,20.50
2019-06-15T11:32:37.789Z,20.50
2019-06-15T11:35:10.171Z,20.70
2019-06-15T11:38:15.205Z,20.90
2019-06-15T11:40:46.343Z,21.20
2019-06-15T11:43:28.305Z,21.30
2019-06-15T11:45:57.126Z,21.40
2019-06-15T11:48:38.012Z,21.40
2019-06-15T11:51:06.796Z,21.50
2019-06-15T11:53:36.587Z,21.60
2019-06-15T11:56:05.493Z,21.60
2019-06-15T11:58:34.281Z,21.30
2019-06-15T12:01:03.176Z,21.10
2019-06-15T12:03:32.923Z,21.00
2019-06-15T12:06:01.750Z,21.00
2019-06-15T12:08:30.557Z,21.00
2019-06-15T12:13:27.884Z,21.90
2019-06-15T12:15:56.683Z,22.50
2019-06-15T12:18:25.476Z,23.20
2019-06-15T12:20:54.353Z,23.20
2019-06-15T12:23:26.238Z,23.20
2019-06-15T12:25:55.069Z,23.00
2019-06-15T12:28:23.946Z,23.20
2019-06-15T12:30:52.849Z,23.20
2019-06-15T12:33:21.660Z,23.40
2019-06-15T12:35:50.471Z,23.80
2019-06-15T12:38:19.270Z,23.80
2019-06-15T12:40:48.083Z,23.50
2019-06-15T12:43:17.165Z,23.40
2019-06-15T12:45:46.003Z,23.40
2019-06-15T12:48:14.785Z,23.40
2019-06-15T12:50:43.640Z,23.20
2019-06-15T12:53:12.427Z,23.20
2019-06-15T12:55:41.344Z,23.60
2019-06-15T12:58:10.190Z,23.60
2019-06-15T13:00:39.164Z,23.90
2019-06-15T13:03:07.938Z,23.60
2019-06-15T13:05:36.779Z,23.60
2019-06-15T13:08:05.553Z,23.20
2019-06-15T13:10:34.899Z,22.90
2019-06-15T13:13:03.709Z,22.90
2019-06-15T13:18:03.003Z,22.50
2019-06-15T13:20:31.894Z,23.00
2019-06-15T13:23:01.726Z,23.60
2019-06-15T13:27:59.035Z,23.40
2019-06-15T13:30:28.000Z,22.90
2019-06-15T13:32:58.211Z,23.00
2019-06-15T13:35:26.988Z,22.80
2019-06-15T13:37:55.930Z,22.60
2019-06-15T13:40:27.780Z,22.60
2019-06-15T13:42:56.597Z,22.40
2019-06-15T13:45:26.447Z,22.30
2019-06-15T13:47:55.248Z,22.00
2019-06-15T13:50:25.190Z,21.80
2019-06-15T13:52:54.136Z,21.80
2019-06-15T13:55:23.197Z,21.60
2019-06-15T13:57:52.055Z,21.70
2019-06-15T14:00:24.370Z,21.80
2019-06-15T14:02:55.251Z,22.10
2019-06-15T14:05:24.315Z,22.50
2019-06-15T14:07:53.110Z,22.70
2019-06-15T14:12:51.328Z,22.80
2019-06-15T14:15:21.184Z,22.70
2019-06-15T14:17:50.014Z,22.60
2019-06-15T14:20:19.024Z,22.40
2019-06-15T14:22:47.833Z,22.30
2019-06-15T14:25:25.414Z,22.30
2019-06-15T14:27:54.240Z,22.50
2019-06-15T14:30:38.232Z,22.90
2019-06-15T14:33:07.049Z,22.90
2019-06-15T14:41:07.007Z,23.30
2019-06-15T14:43:35.917Z,23.60
2019-06-15T14:46:06.793Z,23.50
2019-06-15T14:48:35.694Z,24.20
2019-06-15T14:51:06.080Z,24.30
2019-06-15T14:53:36.682Z,24.30
2019-06-15T14:56:08.514Z,24.40
2019-06-15T15:03:37.756Z,24.60
2019-06-15T15:06:07.054Z,24.60
2019-06-15T15:08:36.706Z,25.40
2019-06-15T15:11:06.627Z,25.70
2019-06-15T15:13:36.657Z,25.70
2019-06-15T15:16:07.839Z,25.20
2019-06-15T15:18:36.653Z,25.40
2019-06-15T15:21:26.391Z,25.40
2019-06-15T15:23:56.911Z,25.40
2019-06-15T15:26:26.538Z,25.50
2019-06-15T15:28:56.624Z,25.50
2019-06-15T15:31:27.230Z,25.50
2019-06-15T15:33:56.262Z,25.80
2019-06-15T15:36:26.332Z,25.60
2019-06-15T15:38:56.131Z,25.90
2019-06-15T15:41:26.434Z,26.00
2019-06-15T15:43:54.830Z,26.40
2019-06-15T15:46:23.781Z,27.50
2019-06-15T15:48:52.717Z,26.20
2019-06-15T15:51:21.557Z,26.20
2019-06-15T15:53:50.511Z,26.40
2019-06-15T15:56:20.291Z,27.30
2019-06-15T15:58:51.147Z,27.30
2019-06-15T16:01:19.914Z,27.30
2019-06-15T16:03:49.882Z,27.90
2019-06-15T16:06:18.703Z,27.50
2019-06-15T16:08:49.585Z,27.00
2019-06-15T16:11:18.341Z,26.50
2019-06-15T16:13:47.233Z,27.10
2019-06-15T16:16:16.576Z,26.90
2019-06-15T16:18:46.946Z,27.30
2019-06-15T16:21:16.939Z,27.20
2019-06-15T16:23:46.828Z,26.80
2019-06-15T16:26:16.983Z,27.30
2019-06-15T16:28:49.373Z,27.50
2019-06-15T16:31:25.966Z,27.60
2019-06-15T16:33:51.326Z,27.60
2019-06-15T16:36:22.550Z,27.40
2019-06-15T16:38:51.973Z,28.10
2019-06-15T16:41:20.870Z,28.20
2019-06-15T16:43:49.659Z,27.90
2019-06-15T16:46:18.571Z,27.60
2019-06-15T16:48:47.389Z,27.80
2019-06-15T16:51:16.859Z,27.40
2019-06-15T16:53:47.285Z,27.50
2019-06-15T16:56:17.026Z,27.70
2019-06-15T16:58:47.118Z,27.10
2019-06-15T17:01:17.539Z,27.00
2019-06-15T17:03:47.450Z,27.30
2019-06-15T17:06:18.228Z,27.40
2019-06-15T17:08:47.296Z,27.70
2019-06-15T17:11:19.881Z,28.00
2019-06-15T17:13:48.436Z,28.20
2019-06-15T17:16:26.049Z,28.50
2019-06-15T17:19:01.507Z,28.40
2019-06-15T17:21:31.589Z,27.70
2019-06-15T17:24:06.546Z,27.60
2019-06-15T17:26:43.157Z,28.00
2019-06-15T17:29:16.294Z,27.80
2019-06-15T17:31:46.762Z,27.70
2019-06-15T17:34:17.558Z,27.90
2019-06-15T17:36:51.532Z,28.10
2019-06-15T17:39:21.486Z,28.40
2019-06-15T17:41:52.232Z,28.70
2019-06-15T17:44:22.473Z,27.80
2019-06-15T17:46:56.583Z,27.40
2019-06-15T17:49:27.247Z,25.90
2019-06-15T17:52:01.420Z,25.00
2019-06-15T17:54:32.515Z,25.00
2019-06-15T17:57:03.611Z,25.80
2019-06-15T17:59:36.461Z,26.90
2019-06-15T18:02:08.680Z,27.70
2019-06-15T18:04:38.162Z,28.20
2019-06-15T18:07:08.985Z,28.40
2019-06-15T18:09:41.521Z,28.30
2019-06-15T18:12:16.228Z,27.40
2019-06-15T18:14:47.075Z,26.90
2019-06-15T18:17:17.257Z,26.70
2019-06-15T18:19:47.367Z,26.40
2019-06-15T18:22:17.027Z,26.20
2019-06-15T18:24:48.473Z,25.60
2019-06-15T18:27:17.476Z,24.80
2019-06-15T18:29:47.834Z,24.00
2019-06-15T18:32:17.078Z,23.50
2019-06-15T18:34:46.578Z,23.20
2019-06-15T18:37:17.252Z,22.90
2019-06-15T18:39:46.750Z,22.60
2019-06-15T18:42:16.364Z,22.50
2019-06-15T18:47:17.948Z,22.10
2019-06-15T18:49:47.291Z,22.10
2019-06-15T18:52:17.128Z,22.00
2019-06-15T18:54:51.052Z,22.00
2019-06-15T18:57:19.986Z,22.00
2019-06-15T19:00:27.975Z,21.90
2019-06-15T19:05:26.122Z,21.60
2019-06-15T19:07:56.723Z,21.40
2019-06-15T19:10:31.724Z,21.40
2019-06-15T19:13:00.804Z,21.00
2019-06-15T19:15:37.813Z,21.10
2019-06-15T19:18:07.307Z,21.10
2019-06-15T19:20:42.868Z,21.00
2019-06-15T19:23:11.664Z,20.90
2019-06-15T19:25:42.429Z,20.90
2019-06-15T19:28:11.332Z,20.70
2019-06-15T19:30:41.129Z,20.50
2019-06-15T19:33:10.055Z,20.40
2019-06-15T19:35:40.870Z,20.40
2019-06-15T19:38:09.798Z,20.30
2019-06-15T19:40:41.896Z,20.20
2019-06-15T19:46:08.417Z,20.00
2019-06-15T19:48:37.292Z,20.00
2019-06-15T19:51:06.219Z,19.90
2019-06-15T19:53:36.430Z,19.80
2019-06-15T19:56:06.832Z,19.80
2019-06-15T19:58:35.893Z,19.80
2019-06-15T20:01:06.693Z,19.60
2019-06-15T20:03:36.153Z,19.50
2019-06-15T20:06:10.325Z,19.50
2019-06-15T20:08:39.112Z,19.30
2019-06-15T20:11:08.026Z,19.20
2019-06-15T20:13:37.195Z,19.20
2019-06-15T20:16:12.207Z,19.20
2019-06-15T20:18:41.007Z,19.20
2019-06-15T20:21:11.824Z,19.10
2019-06-15T20:23:40.653Z,19.00
2019-06-15T20:26:16.064Z,18.90
2019-06-15T20:31:16.878Z,18.80
2019-06-15T20:33:46.642Z,18.80
2019-06-15T20:36:16.043Z,18.70
2019-06-15T20:38:46.928Z,18.60
2019-06-15T20:41:18.530Z,18.60
2019-06-15T20:43:47.296Z,18.50
2019-06-15T20:46:17.217Z,18.40
2019-06-15T20:48:47.055Z,18.40
2019-06-15T20:51:17.345Z,18.30
2019-06-15T20:53:47.445Z,18.30
2019-06-15T20:58:59.933Z,18.30
2019-06-15T21:01:28.747Z,18.20
2019-06-15T21:03:57.531Z,18.10
2019-06-15T21:06:26.443Z,18.10
2019-06-15T21:08:55.295Z,18.00
2019-06-15T21:22:17.317Z,17.80
2019-06-15T21:24:46.447Z,17.80
2019-06-15T21:27:19.503Z,17.70
2019-06-15T21:29:48.364Z,17.80
2019-06-15T21:32:18.199Z,17.80
2019-06-15T21:34:46.973Z,17.80
2019-06-15T21:37:16.942Z,17.80
2019-06-15T21:39:50.032Z,17.80
2019-06-15T21:42:18.811Z,17.80
2019-06-15T21:44:52.712Z,17.70
2019-06-15T21:47:21.671Z,17.60
2019-06-15T21:50:09.938Z,17.50
2019-06-15T21:52:38.747Z,17.50
2019-06-15T21:55:32.569Z,17.40
2019-06-15T21:58:01.399Z,17.40
2019-06-15T22:04:10.902Z,17.20
2019-06-15T22:10:01.317Z,17.00
2019-06-15T22:12:29.588Z,16.90
2019-06-15T22:14:57.652Z,16.90
2019-06-15T22:17:27.647Z,16.70
2019-06-15T22:19:56.892Z,16.80
2019-06-15T22:22:27.265Z,16.60
2019-06-15T22:24:56.049Z,16.60
2019-06-15T22:27:27.465Z,16.50
2019-06-15T22:29:56.528Z,16.50
2019-06-15T22:32:26.928Z,16.30
2019-06-15T22:35:13.547Z,16.20
2019-06-15T22:37:41.585Z,16.10
2019-06-15T22:40:09.853Z,15.90
2019-06-15T22:42:37.878Z,15.70
2019-06-15T22:45:06.798Z,15.60
2019-06-15T22:47:48.115Z,15.50
2019-06-15T22:50:16.179Z,15.50
2019-06-15T22:52:47.161Z,15.50
2019-06-15T22:55:16.421Z,15.50
2019-06-15T22:58:09.174Z,15.60
2019-06-15T23:00:37.570Z,15.50
2019-06-15T23:03:16.646Z,15.50
2019-06-15T23:05:46.176Z,15.50
2019-06-15T23:08:18.236Z,15.40
2019-06-15T23:10:47.064Z,15.30
2019-06-15T23:13:28.044Z,15.40
2019-06-15T23:15:56.845Z,15.40
2019-06-15T23:18:25.813Z,15.30
2019-06-15T23:20:56.740Z,15.30
2019-06-15T23:23:30.649Z,15.40
2019-06-15T23:25:59.432Z,15.20
2019-06-15T23:30:56.790Z,15.20
2019-06-15T23:33:30.089Z,15.20
2019-06-15T23:36:21.959Z,15.00
2019-06-15T23:38:53.271Z,14.90
2019-06-15T23:41:22.049Z,14.80
2019-06-15T23:43:50.943Z,14.80
2019-06-15T23:46:19.742Z,14.80
2019-06-15T23:51:26.598Z,14.80
2019-06-15T23:53:57.134Z,14.80
2019-06-15T23:56:26.337Z,14.70
